createdAt,value
2023-04-21T00:01:40.852Z,7.05
2023-04-21T00:04:10.044Z,6.15
2023-04-21T00:06:37.501Z,4.15
2023-04-21T00:09:05.528Z,5.18
2023-04-21T00:11:32.520Z,4.47
2023-04-21T00:13:59.541Z,4.30
2023-04-21T00:16:26.386Z,6.35
2023-04-21T00:18:53.210Z,3.95
2023-04-21T00:21:20.153Z,7.22
2023-04-21T00:23:47.553Z,12.40
2023-04-21T00:26:14.656Z,6.95
2023-04-21T00:28:43.755Z,7.43
2023-04-21T00:31:10.867Z,8.30
2023-04-21T00:33:37.843Z,5.00
2023-04-21T00:36:05.031Z,6.28
2023-04-21T00:38:31.945Z,5.25
2023-04-21T00:40:59.142Z,6.65
2023-04-21T00:43:26.195Z,7.78
2023-04-21T00:45:54.524Z,7.28
2023-04-21T00:48:21.464Z,7.90
2023-04-21T00:50:48.859Z,5.75
2023-04-21T00:53:16.066Z,5.63
2023-04-21T00:55:43.041Z,6.65
2023-04-21T00:58:10.088Z,9.20
2023-04-21T01:00:38.419Z,6.78
2023-04-21T01:03:07.187Z,5.90
2023-04-21T01:05:34.537Z,3.83
2023-04-21T01:08:02.853Z,9.30
2023-04-21T01:10:29.903Z,9.40
2023-04-21T01:12:56.744Z,6.88
2023-04-21T01:15:26.227Z,4.07
2023-04-21T01:17:54.213Z,7.95
2023-04-21T01:20:21.242Z,5.25
2023-04-21T01:22:50.001Z,5.72
2023-04-21T01:25:18.729Z,4.60
2023-04-21T01:27:45.600Z,7.70
2023-04-21T01:30:13.145Z,11.18
2023-04-21T01:32:40.057Z,7.05
2023-04-21T01:35:08.665Z,4.65
2023-04-21T01:37:38.270Z,5.13
2023-04-21T01:40:09.536Z,5.30
2023-04-21T01:45:05.614Z,5.40
2023-04-21T01:47:32.690Z,7.35
2023-04-21T01:49:59.628Z,8.35
2023-04-21T01:52:26.515Z,8.60
2023-04-21T01:54:54.629Z,26.40
2023-04-21T01:57:21.711Z,12.70
2023-04-21T01:59:50.608Z,40.58
2023-04-21T02:02:17.677Z,31.48
2023-04-21T02:04:44.775Z,39.72
2023-04-21T02:07:11.878Z,17.90
2023-04-21T02:09:41.042Z,13.50
2023-04-21T02:12:08.234Z,13.55
2023-04-21T02:14:36.858Z,9.27
2023-04-21T02:17:04.184Z,7.28
2023-04-21T02:19:31.407Z,10.93
2023-04-21T02:21:58.406Z,7.85
2023-04-21T02:24:25.638Z,6.75
2023-04-21T02:26:53.996Z,8.50
2023-04-21T02:29:21.001Z,11.20
2023-04-21T02:31:59.343Z,10.30
2023-04-21T02:34:28.456Z,6.00
2023-04-21T02:36:55.529Z,7.20
2023-04-21T02:39:22.299Z,8.15
2023-04-21T02:41:49.398Z,13.30
2023-04-21T02:44:16.381Z,6.40
2023-04-21T02:46:44.925Z,16.67
2023-04-21T02:49:11.880Z,10.05
2023-04-21T02:51:38.896Z,14.43
2023-04-21T02:54:05.921Z,8.98
2023-04-21T02:56:34.804Z,11.95
2023-04-21T02:59:01.664Z,9.77
2023-04-21T03:01:28.662Z,9.68
2023-04-21T03:03:55.710Z,9.38
2023-04-21T03:06:22.767Z,5.93
2023-04-21T03:08:49.648Z,6.30
2023-04-21T03:11:16.601Z,7.38
2023-04-21T03:13:45.560Z,8.48
2023-04-21T03:16:13.469Z,9.05
2023-04-21T03:18:40.631Z,6.55
2023-04-21T03:21:07.461Z,7.70
2023-04-21T03:23:34.415Z,6.50
2023-04-21T03:26:01.354Z,9.65
2023-04-21T03:28:28.254Z,16.80
2023-04-21T03:30:55.370Z,7.97
2023-04-21T03:33:22.437Z,10.30
2023-04-21T03:35:49.232Z,8.73
2023-04-21T03:38:16.360Z,8.05
2023-04-21T03:40:43.413Z,11.00
2023-04-21T03:43:10.469Z,14.95
2023-04-21T03:45:38.257Z,17.60
2023-04-21T03:48:05.658Z,14.90
2023-04-21T03:50:32.797Z,11.52
2023-04-21T03:52:59.835Z,13.40
2023-04-21T03:55:26.823Z,10.50
2023-04-21T03:57:53.839Z,9.45
2023-04-21T04:00:21.248Z,12.75
2023-04-21T04:02:48.416Z,9.93
2023-04-21T04:05:15.919Z,9.82
2023-04-21T04:07:42.961Z,11.80
2023-04-21T04:10:09.773Z,12.63
2023-04-21T04:12:36.700Z,11.38
2023-04-21T04:15:03.778Z,17.90
2023-04-21T04:17:31.104Z,17.75
2023-04-21T04:19:58.145Z,23.00
2023-04-21T04:22:25.359Z,21.98
2023-04-21T04:27:21.483Z,19.52
2023-04-21T04:29:49.365Z,16.55
2023-04-21T04:32:16.284Z,17.95
2023-04-21T04:34:43.577Z,20.13
2023-04-21T04:37:11.333Z,23.17
2023-04-21T04:39:38.624Z,25.10
2023-04-21T04:42:11.827Z,14.95
2023-04-21T04:44:39.042Z,21.27
2023-04-21T04:47:06.215Z,12.52
2023-04-21T04:49:33.568Z,15.07
2023-04-21T04:52:03.309Z,14.75
2023-04-21T04:54:30.210Z,11.88
2023-04-21T04:56:58.023Z,11.65
2023-04-21T04:59:25.300Z,9.07
2023-04-21T05:01:52.750Z,11.88
2023-04-21T05:04:20.673Z,8.43
2023-04-21T05:06:47.999Z,5.70
2023-04-21T05:09:14.897Z,6.38
2023-04-21T05:11:41.931Z,5.15
2023-04-21T05:14:08.945Z,4.70
2023-04-21T05:16:35.884Z,4.93
2023-04-21T05:19:03.159Z,5.80
2023-04-21T05:21:31.492Z,5.07
2023-04-21T05:23:59.466Z,10.77
2023-04-21T05:26:27.852Z,6.45
2023-04-21T05:28:58.377Z,4.38
2023-04-21T05:31:25.684Z,5.95
2023-04-21T05:33:52.813Z,12.05
2023-04-21T05:36:24.910Z,4.97
2023-04-21T05:38:52.757Z,7.65
2023-04-21T05:41:19.696Z,6.90
2023-04-21T05:43:47.622Z,3.25
2023-04-21T05:46:14.812Z,4.80
2023-04-21T05:48:41.866Z,8.02
2023-04-21T05:51:11.128Z,3.90
2023-04-21T05:53:39.567Z,3.50
2023-04-21T05:56:08.579Z,5.45
2023-04-21T05:58:36.187Z,4.25
2023-04-21T06:01:03.889Z,6.07
2023-04-21T06:03:32.427Z,4.65
2023-04-21T06:06:04.375Z,4.30
2023-04-21T06:08:31.667Z,4.40
2023-04-21T06:10:58.829Z,7.38
2023-04-21T06:13:27.785Z,8.18
2023-04-21T06:15:55.252Z,7.32
2023-04-21T06:18:22.475Z,6.30
2023-04-21T06:20:53.957Z,7.38
2023-04-21T06:26:04.266Z,4.90
2023-04-21T06:28:32.127Z,5.18
2023-04-21T06:31:04.079Z,10.63
2023-04-21T06:33:32.640Z,7.22
2023-04-21T06:35:59.692Z,5.80
2023-04-21T06:38:26.567Z,9.23
2023-04-21T06:40:53.530Z,8.57
2023-04-21T06:43:20.650Z,6.30
2023-04-21T06:45:51.038Z,5.03
2023-04-21T06:48:18.175Z,9.55
2023-04-21T06:50:46.426Z,6.05
2023-04-21T06:53:13.520Z,6.25
2023-04-21T06:55:40.556Z,6.40
2023-04-21T06:58:07.476Z,6.05
2023-04-21T07:00:34.470Z,6.32
2023-04-21T07:03:01.530Z,6.50
2023-04-21T07:05:29.096Z,6.50
2023-04-21T07:07:59.850Z,11.88
2023-04-21T07:10:27.941Z,6.20
2023-04-21T07:12:55.889Z,7.25
2023-04-21T07:15:23.272Z,9.55
2023-04-21T07:17:50.243Z,6.20
2023-04-21T07:20:18.809Z,7.97
2023-04-21T07:22:46.069Z,7.90
2023-04-21T07:25:13.200Z,8.80
2023-04-21T07:27:41.567Z,6.78
2023-04-21T07:30:09.443Z,8.45
2023-04-21T07:32:38.863Z,12.63
2023-04-21T07:35:07.022Z,7.18
2023-04-21T07:37:34.009Z,8.40
2023-04-21T07:40:01.459Z,6.55
2023-04-21T07:42:28.569Z,8.43
2023-04-21T07:44:56.200Z,6.20
2023-04-21T07:47:23.381Z,12.27
2023-04-21T07:49:50.776Z,5.50
2023-04-21T07:52:17.797Z,9.35
2023-04-21T07:54:44.826Z,5.40
2023-04-21T07:57:11.804Z,6.13
2023-04-21T07:59:38.726Z,4.68
2023-04-21T08:02:06.026Z,4.80
2023-04-21T08:04:33.032Z,6.90
2023-04-21T08:07:00.487Z,6.13
2023-04-21T08:09:27.628Z,6.15
2023-04-21T08:11:55.416Z,14.13
2023-04-21T08:14:22.317Z,12.05
2023-04-21T08:16:49.765Z,8.88
2023-04-21T08:19:16.935Z,12.70
2023-04-21T08:21:43.846Z,7.65
2023-04-21T08:24:10.933Z,11.75
2023-04-21T08:26:37.855Z,16.50
2023-04-21T08:29:07.499Z,4.25
2023-04-21T08:31:34.890Z,9.93
2023-04-21T08:34:03.031Z,9.70
2023-04-21T08:36:30.861Z,11.52
2023-04-21T08:38:58.106Z,5.68
2023-04-21T08:41:26.482Z,13.57
2023-04-21T08:43:53.605Z,9.65
2023-04-21T08:46:21.745Z,12.65
2023-04-21T08:48:48.743Z,16.73
2023-04-21T08:51:22.534Z,9.75
2023-04-21T08:53:49.325Z,12.68
2023-04-21T08:56:16.480Z,12.60
2023-04-21T08:58:43.464Z,16.65
2023-04-21T09:01:11.273Z,12.82
2023-04-21T09:03:38.442Z,11.90
2023-04-21T09:06:08.838Z,7.70
2023-04-21T09:08:43.463Z,15.57
2023-04-21T09:11:14.954Z,11.65
2023-04-21T09:13:43.982Z,8.50
2023-04-21T09:16:21.166Z,7.20
2023-04-21T09:18:49.613Z,9.68
2023-04-21T09:21:18.328Z,17.75
2023-04-21T09:23:49.994Z,12.02
2023-04-21T09:26:19.103Z,7.43
2023-04-21T09:28:48.471Z,17.23
2023-04-21T09:31:20.117Z,6.53
2023-04-21T09:33:58.736Z,8.55
2023-04-21T09:36:29.698Z,10.18
2023-04-21T09:41:34.455Z,8.90
2023-04-21T09:44:02.109Z,9.65
2023-04-21T09:46:38.489Z,9.65
2023-04-21T09:49:06.611Z,12.23
2023-04-21T09:54:28.501Z,6.38
2023-04-21T09:57:02.527Z,10.82
2023-04-21T09:59:33.064Z,10.75
2023-04-21T10:02:01.360Z,8.23
2023-04-21T10:04:31.667Z,4.38
2023-04-21T10:07:00.410Z,7.47
2023-04-21T10:09:56.349Z,9.95
2023-04-21T10:12:25.179Z,19.30
2023-04-21T10:14:56.980Z,14.05
2023-04-21T10:17:26.261Z,12.73
2023-04-21T10:19:57.312Z,9.23
2023-04-21T10:22:32.813Z,17.45
2023-04-21T10:25:02.459Z,16.35
2023-04-21T10:27:36.649Z,10.95
2023-04-21T10:30:23.481Z,8.95
2023-04-21T10:33:03.730Z,12.63
2023-04-21T10:36:03.446Z,6.00
2023-04-21T10:38:44.504Z,28.27
2023-04-21T10:41:28.290Z,7.88
2023-04-21T10:43:59.524Z,16.85
2023-04-21T10:46:35.317Z,5.80
2023-04-21T10:49:07.092Z,4.45
2023-04-21T10:52:03.498Z,10.18
2023-04-21T10:54:37.334Z,6.55
2023-04-21T10:57:08.216Z,5.93
2023-04-21T10:59:36.175Z,4.53
2023-04-21T11:02:07.863Z,4.75
2023-04-21T11:04:35.375Z,8.38
2023-04-21T11:07:08.197Z,15.73
2023-04-21T11:09:36.859Z,8.07
2023-04-21T11:12:07.555Z,4.22
2023-04-21T11:14:37.038Z,10.93
2023-04-21T11:17:12.921Z,5.38
2023-04-21T11:19:40.588Z,6.90
2023-04-21T11:22:07.792Z,8.48
2023-04-21T11:24:34.999Z,6.22
2023-04-21T11:27:02.279Z,7.10
2023-04-21T11:29:29.921Z,8.57
2023-04-21T11:31:59.033Z,7.60
2023-04-21T11:34:26.961Z,14.82
2023-04-21T11:36:54.212Z,8.90
2023-04-21T11:39:22.246Z,10.98
2023-04-21T11:41:51.216Z,6.78
2023-04-21T11:44:36.510Z,12.13
2023-04-21T11:47:33.461Z,5.07
2023-04-21T11:50:04.152Z,12.55
2023-04-21T11:52:37.492Z,7.13
2023-04-21T11:55:15.521Z,10.10
2023-04-21T11:57:42.507Z,8.77
2023-04-21T12:00:14.570Z,12.32
2023-04-21T12:02:42.885Z,13.63
2023-04-21T12:05:12.230Z,13.27
2023-04-21T12:07:42.784Z,6.38
2023-04-21T12:10:11.840Z,7.55
2023-04-21T12:12:39.642Z,17.35
2023-04-21T12:15:07.725Z,9.27
2023-04-21T12:17:39.711Z,5.93
2023-04-21T12:20:07.739Z,13.05
2023-04-21T12:22:34.937Z,7.68
2023-04-21T12:25:02.007Z,14.05
2023-04-21T12:27:29.289Z,6.95
2023-04-21T12:29:56.095Z,8.55
2023-04-21T12:32:23.192Z,9.02
2023-04-21T12:34:50.287Z,10.20
2023-04-21T12:37:17.364Z,4.80
2023-04-21T12:39:44.164Z,6.90
2023-04-21T12:42:11.226Z,11.10
2023-04-21T12:44:38.866Z,6.65
2023-04-21T12:47:06.460Z,2.95
2023-04-21T12:49:33.266Z,4.82
2023-04-21T12:52:00.456Z,6.43
2023-04-21T12:54:27.326Z,6.25
2023-04-21T12:56:54.431Z,4.50
2023-04-21T12:59:21.815Z,8.43
2023-04-21T13:01:49.003Z,8.60
2023-04-21T13:04:16.086Z,9.05
2023-04-21T13:06:43.150Z,10.73
2023-04-21T13:09:10.103Z,8.18
2023-04-21T13:11:37.169Z,6.95
2023-04-21T13:14:04.324Z,7.97
2023-04-21T13:16:31.954Z,3.70
2023-04-21T13:18:59.304Z,14.88
2023-04-21T13:21:26.597Z,6.35
2023-04-21T13:23:53.903Z,8.52
2023-04-21T13:26:21.295Z,8.55
2023-04-21T13:28:48.356Z,10.10
2023-04-21T13:31:15.790Z,7.80
2023-04-21T13:33:43.147Z,7.13
2023-04-21T13:36:12.905Z,10.80
2023-04-21T13:38:41.156Z,42.70
2023-04-21T13:41:08.391Z,9.85
2023-04-21T13:43:35.879Z,7.72
2023-04-21T13:46:03.011Z,9.60
2023-04-21T13:48:30.173Z,9.38
2023-04-21T13:50:57.233Z,4.20
2023-04-21T13:53:24.408Z,4.75
2023-04-21T13:55:51.303Z,4.00
2023-04-21T13:58:18.401Z,8.65
2023-04-21T14:00:45.582Z,3.83
2023-04-21T14:03:12.713Z,5.05
2023-04-21T14:05:40.276Z,7.55
2023-04-21T14:08:07.893Z,6.95
2023-04-21T14:10:34.660Z,17.58
2023-04-21T14:13:01.770Z,7.35
2023-04-21T14:15:28.672Z,8.57
2023-04-21T14:18:03.094Z,5.35
2023-04-21T14:20:29.989Z,10.07
2023-04-21T14:22:56.931Z,6.45
2023-04-21T14:25:24.037Z,7.15
2023-04-21T14:27:51.023Z,7.80
2023-04-21T14:30:18.516Z,6.07
2023-04-21T14:32:46.228Z,4.50
2023-04-21T14:35:13.601Z,7.53
2023-04-21T14:37:41.262Z,10.95
2023-04-21T14:40:09.527Z,7.22
2023-04-21T14:42:36.877Z,9.27
2023-04-21T14:45:04.119Z,3.65
2023-04-21T14:47:31.177Z,6.18
2023-04-21T14:49:58.329Z,12.15
2023-04-21T14:52:27.014Z,4.55
2023-04-21T14:54:54.063Z,6.75
2023-04-21T14:57:22.113Z,8.32
2023-04-21T14:59:51.926Z,10.05
2023-04-21T15:02:22.625Z,13.40
2023-04-21T15:04:50.185Z,8.57
2023-04-21T15:07:24.207Z,11.02
2023-04-21T15:09:52.695Z,7.32
2023-04-21T15:12:19.603Z,12.15
2023-04-21T15:14:47.022Z,8.90
2023-04-21T15:17:14.074Z,6.10
2023-04-21T15:19:40.849Z,6.75
2023-04-21T15:22:07.936Z,15.15
2023-04-21T15:24:34.916Z,13.05
2023-04-21T15:27:02.532Z,25.83
2023-04-21T15:29:29.692Z,9.48
2023-04-21T15:31:56.747Z,4.30
2023-04-21T15:34:23.758Z,7.30
2023-04-21T15:36:50.747Z,5.18
2023-04-21T15:39:17.690Z,5.15
2023-04-21T15:41:44.669Z,9.40
2023-04-21T15:44:11.664Z,11.02
2023-04-21T15:46:38.659Z,8.35
2023-04-21T15:49:05.864Z,8.35
2023-04-21T15:51:34.230Z,14.45
2023-04-21T15:54:01.298Z,11.02
2023-04-21T15:56:28.318Z,7.40
2023-04-21T15:58:57.217Z,5.80
2023-04-21T16:01:24.784Z,10.15
2023-04-21T16:03:53.647Z,11.27
2023-04-21T16:06:21.662Z,5.50
2023-04-21T16:09:07.456Z,9.77
2023-04-21T16:11:34.474Z,14.35
2023-04-21T16:14:01.605Z,4.22
2023-04-21T16:16:28.705Z,11.02
2023-04-21T16:18:55.489Z,12.13
2023-04-21T16:21:23.874Z,13.25
2023-04-21T16:23:50.858Z,37.30
2023-04-21T16:26:17.982Z,16.85
2023-04-21T16:28:45.017Z,9.50
2023-04-21T16:31:34.428Z,10.45
2023-04-21T16:34:01.387Z,9.25
2023-04-21T16:36:29.279Z,6.80
2023-04-21T16:38:56.421Z,13.95
2023-04-21T16:41:30.758Z,31.73
2023-04-21T16:43:57.674Z,31.58
2023-04-21T16:52:59.963Z,10.95
2023-04-21T16:55:25.104Z,14.02
2023-04-21T16:57:52.374Z,13.60
2023-04-21T17:00:19.640Z,22.52
2023-04-21T17:02:46.660Z,36.67
2023-04-21T17:05:15.888Z,32.63
2023-04-21T17:07:43.312Z,38.38
2023-04-21T17:10:10.926Z,32.10
2023-04-21T17:12:37.731Z,38.75
2023-04-21T17:15:05.768Z,34.00
2023-04-21T17:17:48.896Z,34.03
2023-04-21T17:20:16.127Z,37.92
2023-04-21T17:22:43.187Z,40.63
2023-04-21T17:25:11.135Z,38.38
2023-04-21T17:27:40.746Z,50.88
2023-04-21T17:30:09.684Z,29.83
2023-04-21T17:32:37.289Z,36.25
2023-04-21T17:35:05.853Z,21.95
2023-04-21T17:37:34.150Z,60.28
2023-04-21T17:40:03.272Z,50.00
2023-04-21T17:42:30.872Z,35.45
2023-04-21T17:44:57.861Z,33.10
2023-04-21T17:47:24.764Z,31.40
2023-04-21T17:49:51.761Z,33.40
2023-04-21T17:52:18.743Z,35.50
2023-04-21T17:54:46.204Z,36.30
2023-04-21T17:57:13.434Z,28.20
2023-04-21T17:59:40.736Z,23.25
2023-04-21T18:02:08.003Z,13.00
2023-04-21T18:04:35.230Z,14.65
2023-04-21T18:07:03.320Z,12.40
2023-04-21T18:09:30.396Z,14.10
2023-04-21T18:11:58.542Z,10.38
2023-04-21T18:14:25.848Z,12.95
2023-04-21T18:16:53.354Z,12.45
2023-04-21T18:19:20.314Z,9.05
2023-04-21T18:21:47.279Z,17.48
2023-04-21T18:24:14.788Z,59.03
2023-04-21T18:26:41.645Z,45.55
2023-04-21T18:29:08.643Z,12.63
2023-04-21T18:31:36.409Z,14.52
2023-04-21T18:34:03.411Z,11.13
2023-04-21T18:36:33.165Z,22.55
2023-04-21T18:39:20.575Z,16.17
2023-04-21T18:42:14.154Z,26.27
2023-04-21T18:44:41.305Z,30.08
2023-04-21T18:47:08.266Z,31.65
2023-04-21T18:49:35.608Z,35.50
2023-04-21T18:52:02.905Z,57.40
2023-04-21T18:54:29.779Z,43.17
2023-04-21T18:56:57.748Z,45.78
2023-04-21T18:59:25.524Z,38.08
2023-04-21T19:01:53.635Z,42.40
2023-04-21T19:04:21.078Z,19.52
2023-04-21T19:06:49.084Z,22.08
2023-04-21T19:09:17.023Z,15.40
2023-04-21T19:11:44.203Z,9.20
2023-04-21T19:14:11.581Z,19.02
2023-04-21T19:16:38.631Z,17.05
2023-04-21T19:19:06.169Z,24.23
2023-04-21T19:21:33.461Z,70.20
2023-04-21T19:24:00.562Z,53.67
2023-04-21T19:26:34.234Z,34.33
2023-04-21T19:29:01.269Z,41.95
2023-04-21T19:31:28.118Z,37.20
2023-04-21T19:33:55.093Z,33.70
2023-04-21T19:36:22.206Z,21.15
2023-04-21T19:38:50.560Z,23.35
2023-04-21T19:41:17.794Z,15.60
2023-04-21T19:43:44.870Z,19.15
2023-04-21T19:46:12.088Z,15.35
2023-04-21T19:48:41.334Z,22.23
2023-04-21T19:51:09.516Z,16.50
2023-04-21T19:53:36.434Z,18.70
2023-04-21T19:56:03.397Z,21.73
2023-04-21T19:58:41.188Z,32.13
2023-04-21T20:01:09.573Z,27.20
2023-04-21T20:03:38.483Z,33.25
2023-04-21T20:06:06.840Z,32.20
2023-04-21T20:08:34.040Z,33.75
2023-04-21T20:11:00.945Z,21.38
2023-04-21T20:13:27.863Z,21.55
2023-04-21T20:15:55.416Z,23.98
2023-04-21T20:18:22.548Z,20.10
2023-04-21T20:20:49.474Z,19.42
2023-04-21T20:23:16.550Z,17.52
2023-04-21T20:25:43.588Z,24.90
2023-04-21T20:28:10.950Z,16.77
2023-04-21T20:30:37.720Z,18.88
2023-04-21T20:33:05.044Z,17.58
2023-04-21T20:35:34.331Z,18.55
2023-04-21T20:38:01.509Z,18.30
2023-04-21T20:40:28.429Z,20.05
2023-04-21T20:42:55.545Z,15.98
2023-04-21T20:45:22.500Z,14.20
2023-04-21T20:47:49.380Z,18.35
2023-04-21T20:50:16.751Z,14.13
2023-04-21T20:52:43.787Z,13.32
2023-04-21T20:55:11.298Z,11.05
2023-04-21T20:57:38.388Z,12.40
2023-04-21T21:00:06.618Z,17.20
2023-04-21T21:02:34.336Z,11.77
2023-04-21T21:05:01.404Z,10.02
2023-04-21T21:07:28.608Z,7.18
2023-04-21T21:09:56.246Z,9.57
2023-04-21T21:12:23.136Z,11.05
2023-04-21T21:14:50.532Z,10.63
2023-04-21T21:17:17.367Z,12.80
2023-04-21T21:19:44.558Z,11.60
2023-04-21T21:22:11.509Z,11.35
2023-04-21T21:24:39.088Z,8.85
2023-04-21T21:27:06.074Z,10.35
2023-04-21T21:29:33.196Z,10.63
2023-04-21T21:32:00.028Z,7.65
2023-04-21T21:34:27.175Z,8.95
2023-04-21T21:36:53.994Z,8.70
2023-04-21T21:39:21.149Z,8.38
2023-04-21T21:41:47.988Z,10.07
2023-04-21T21:44:15.031Z,6.00
2023-04-21T21:46:42.471Z,7.03
2023-04-21T21:49:10.655Z,10.93
2023-04-21T21:51:37.501Z,18.50
2023-04-21T21:54:05.581Z,16.05
2023-04-21T21:56:32.768Z,15.32
2023-04-21T21:58:59.638Z,14.75
2023-04-21T22:01:26.660Z,16.95
2023-04-21T22:03:54.121Z,16.80
2023-04-21T22:06:26.636Z,17.50
2023-04-21T22:08:53.690Z,18.98
2023-04-21T22:11:20.832Z,13.20
2023-04-21T22:13:47.796Z,9.07
2023-04-21T22:16:14.856Z,14.32
2023-04-21T22:18:41.769Z,11.85
2023-04-21T22:21:08.932Z,9.02
2023-04-21T22:23:36.457Z,9.52
2023-04-21T22:26:03.488Z,18.15
2023-04-21T22:28:30.346Z,5.78
2023-04-21T22:30:57.616Z,10.20
2023-04-21T22:33:24.502Z,6.47
2023-04-21T22:35:51.468Z,8.00
2023-04-21T22:38:18.325Z,11.98
2023-04-21T22:40:45.274Z,7.75
2023-04-21T22:43:12.312Z,7.20
2023-04-21T22:45:39.207Z,8.07
2023-04-21T22:48:06.223Z,14.52
2023-04-21T22:50:34.722Z,12.30
2023-04-21T22:53:01.668Z,10.32
2023-04-21T22:55:28.981Z,19.38
2023-04-21T22:57:55.923Z,10.07
2023-04-21T23:00:22.865Z,16.48
2023-04-21T23:02:49.903Z,10.82
2023-04-21T23:05:17.368Z,10.55
2023-04-21T23:07:44.285Z,10.85
2023-04-21T23:10:11.583Z,12.48
2023-04-21T23:12:38.580Z,8.88
2023-04-21T23:15:06.084Z,10.20
2023-04-21T23:17:33.006Z,15.90
2023-04-21T23:20:02.380Z,12.10
2023-04-21T23:22:29.216Z,16.35
2023-04-21T23:24:56.576Z,16.83
2023-04-21T23:27:23.383Z,18.98
2023-04-21T23:29:50.149Z,18.63
2023-04-21T23:32:17.304Z,16.17
2023-04-21T23:34:44.556Z,17.45
2023-04-21T23:37:11.771Z,10.73
2023-04-21T23:39:39.112Z,11.82
2023-04-21T23:42:06.426Z,12.55
2023-04-21T23:44:33.304Z,13.65
2023-04-21T23:47:00.341Z,7.82
2023-04-21T23:49:27.153Z,13.70
2023-04-21T23:51:54.165Z,17.73
2023-04-21T23:54:21.319Z,18.42
2023-04-21T23:56:48.288Z,14.07
2023-04-21T23:59:15.460Z,13.65
